Terminal Aerodrome Forecast
Issued by NWS

Home | Current Version | Previous Version | Text Only | Print | Product List | Glossary On
Versions: 1 2 3 4 5 6 7 8 9 10 11 12 13 14 15 16 17 18 19 20 21 22 23 24 25 26
000
FTUS44 KLIX 041123
TAFHUM
TAF
KHUM 041123Z 0412/0512 17003KT P6SM BKN120
     FM041300 20006KT P6SM SCT030 BKN250
     FM041600 22008KT P6SM VCTS SCT035CB BKN050
      TEMPO 0417/0421 VRB15G25KT 2SM TSRA BKN030CB
     FM050400 20004KT P6SM SCT020 BKN120=

USA.gov is the U.S. government's official web portal to all federal, state and local government web resources and services.